createdAt,value
2023-05-18T00:00:13.995Z,7.30
2023-05-18T00:02:41.958Z,7.90
2023-05-18T00:05:12.114Z,7.60
2023-05-18T00:07:40.705Z,7.30
2023-05-18T00:10:08.581Z,7.50
2023-05-18T00:12:37.529Z,7.60
2023-05-18T00:15:04.874Z,7.80
2023-05-18T00:17:31.763Z,8.30
2023-05-18T00:19:59.071Z,7.40
2023-05-18T00:22:26.024Z,8.30
2023-05-18T00:24:54.119Z,7.90
2023-05-18T00:27:20.930Z,7.50
2023-05-18T00:29:47.969Z,7.70
2023-05-18T00:32:14.855Z,7.90
2023-05-18T00:34:41.702Z,7.70
2023-05-18T00:37:08.513Z,7.00
2023-05-18T00:39:35.484Z,7.50
2023-05-18T00:42:03.095Z,7.20
2023-05-18T00:44:30.099Z,7.20
2023-05-18T00:46:57.137Z,6.80
2023-05-18T00:49:23.951Z,7.20
2023-05-18T00:51:50.806Z,7.40
2023-05-18T00:54:18.868Z,7.90
2023-05-18T00:56:46.217Z,6.90
2023-05-18T00:59:13.398Z,6.50
2023-05-18T01:01:43.237Z,7.00
2023-05-18T01:04:13.711Z,6.60
2023-05-18T01:06:42.435Z,6.20
2023-05-18T01:09:11.284Z,6.30
2023-05-18T01:12:12.536Z,5.40
2023-05-18T01:14:50.225Z,5.80
2023-05-18T01:17:42.022Z,6.40
2023-05-18T01:20:15.147Z,6.20
2023-05-18T01:22:50.068Z,6.20
2023-05-18T01:25:36.070Z,5.90
2023-05-18T01:28:09.673Z,6.00
2023-05-18T01:30:39.707Z,5.90
2023-05-18T01:33:08.941Z,5.60
2023-05-18T01:35:36.652Z,5.80
2023-05-18T01:38:04.108Z,5.70
2023-05-18T01:40:33.237Z,6.00
2023-05-18T01:43:03.654Z,5.80
2023-05-18T01:45:30.654Z,5.50
2023-05-18T01:47:59.592Z,5.70
2023-05-18T01:50:31.627Z,5.90
2023-05-18T01:53:05.932Z,6.10
2023-05-18T01:55:34.200Z,5.60
2023-05-18T01:58:01.364Z,5.80
2023-05-18T02:00:28.516Z,5.70
2023-05-18T02:02:55.662Z,5.90
2023-05-18T02:05:23.219Z,6.40
2023-05-18T02:07:50.051Z,7.00
2023-05-18T02:10:17.422Z,6.40
2023-05-18T02:12:48.585Z,6.20
2023-05-18T02:15:15.609Z,5.80
2023-05-18T02:17:42.969Z,6.30
2023-05-18T02:20:10.728Z,6.30
2023-05-18T02:22:37.892Z,6.20
2023-05-18T02:25:06.766Z,6.40
2023-05-18T02:27:35.471Z,6.00
2023-05-18T02:30:08.217Z,5.90
2023-05-18T02:32:38.590Z,6.10
2023-05-18T02:35:07.736Z,6.60
2023-05-18T02:37:39.956Z,6.50
2023-05-18T02:40:12.091Z,6.50
2023-05-18T02:42:40.250Z,6.80
2023-05-18T02:45:07.749Z,7.10
2023-05-18T02:47:34.882Z,7.30
2023-05-18T02:50:02.440Z,7.90
2023-05-18T02:52:30.372Z,7.30
2023-05-18T02:54:57.468Z,7.30
2023-05-18T02:57:36.859Z,6.90
2023-05-18T03:00:11.216Z,6.70
2023-05-18T03:02:39.592Z,7.30
2023-05-18T03:05:07.570Z,7.80
2023-05-18T03:07:34.691Z,8.00
2023-05-18T03:10:07.149Z,7.10
2023-05-18T03:12:34.463Z,7.20
2023-05-18T03:15:01.269Z,7.90
2023-05-18T03:17:29.838Z,7.20
2023-05-18T03:19:56.801Z,7.50
2023-05-18T03:22:23.610Z,7.30
2023-05-18T03:24:51.134Z,7.10
2023-05-18T03:27:22.742Z,7.30
2023-05-18T03:29:50.196Z,7.10
2023-05-18T03:32:17.139Z,6.80
2023-05-18T03:34:47.001Z,6.50
2023-05-18T03:37:15.327Z,7.70
2023-05-18T03:39:42.338Z,7.60
2023-05-18T03:42:09.221Z,7.20
2023-05-18T03:44:36.266Z,6.70
2023-05-18T03:47:03.622Z,7.00
2023-05-18T03:49:33.525Z,7.50
2023-05-18T03:52:01.917Z,6.90
2023-05-18T03:54:30.292Z,6.50
2023-05-18T03:56:57.243Z,6.30
2023-05-18T03:59:24.082Z,6.40
2023-05-18T04:01:53.181Z,6.40
2023-05-18T04:04:22.573Z,6.40
2023-05-18T04:06:50.930Z,6.40
2023-05-18T04:11:45.452Z,7.70
2023-05-18T04:14:13.631Z,6.10
2023-05-18T04:16:40.965Z,6.40
2023-05-18T04:19:08.487Z,7.00
2023-05-18T04:21:36.822Z,7.20
2023-05-18T04:24:04.709Z,7.00
2023-05-18T04:26:38.237Z,7.10
2023-05-18T04:29:07.277Z,8.70
2023-05-18T04:31:35.318Z,6.20
2023-05-18T04:34:02.288Z,7.10
2023-05-18T04:36:34.561Z,7.00
2023-05-18T04:39:07.275Z,8.00
2023-05-18T04:41:34.798Z,6.60
2023-05-18T04:44:03.073Z,7.30
2023-05-18T04:48:57.471Z,6.20
2023-05-18T04:51:24.290Z,6.80
2023-05-18T04:53:52.602Z,7.50
2023-05-18T04:56:22.626Z,7.40
2023-05-18T04:58:49.767Z,7.60
2023-05-18T05:01:17.923Z,7.20
2023-05-18T05:03:45.192Z,7.60
2023-05-18T05:06:12.330Z,7.20
2023-05-18T05:08:39.506Z,6.40
2023-05-18T05:11:06.659Z,6.40
2023-05-18T05:13:35.508Z,6.20
2023-05-18T05:18:30.339Z,8.40
2023-05-18T05:20:58.801Z,7.70
2023-05-18T05:23:26.832Z,7.60
2023-05-18T05:25:54.339Z,7.80
2023-05-18T05:28:21.283Z,6.00
2023-05-18T05:30:48.554Z,7.50
2023-05-18T05:33:16.838Z,6.90
2023-05-18T05:38:11.209Z,5.70
2023-05-18T05:40:38.403Z,5.50
2023-05-18T05:43:05.712Z,5.30
2023-05-18T05:45:33.534Z,6.20
2023-05-18T05:48:03.155Z,6.00
2023-05-18T05:53:01.010Z,5.80
2023-05-18T05:55:31.215Z,5.40
2023-05-18T05:57:58.214Z,4.80
2023-05-18T06:00:27.022Z,3.90
2023-05-18T06:02:59.047Z,4.00
2023-05-18T06:05:35.241Z,4.50
2023-05-18T06:08:04.236Z,4.40
2023-05-18T06:10:32.311Z,3.80
2023-05-18T06:12:59.978Z,5.00
2023-05-18T06:15:38.636Z,4.00
2023-05-18T06:18:05.579Z,4.30
2023-05-18T06:23:00.422Z,3.90
2023-05-18T06:25:38.760Z,4.60
2023-05-18T06:31:18.192Z,3.00
2023-05-18T06:33:49.171Z,2.90
2023-05-18T06:36:16.492Z,2.60
2023-05-18T06:38:44.565Z,3.30
2023-05-18T06:41:11.333Z,2.50
2023-05-18T06:43:40.790Z,2.10
2023-05-18T06:46:30.734Z,1.70
2023-05-18T06:49:00.825Z,2.00
2023-05-18T06:51:27.947Z,2.50
2023-05-18T06:53:56.965Z,2.70
2023-05-18T06:56:24.026Z,2.20
2023-05-18T06:58:51.765Z,2.50
2023-05-18T07:01:18.847Z,2.70
2023-05-18T07:03:46.104Z,2.10
2023-05-18T07:06:14.600Z,2.10
2023-05-18T07:08:41.533Z,1.70
2023-05-18T07:11:09.242Z,2.40
2023-05-18T07:13:36.220Z,2.60
2023-05-18T07:16:03.185Z,3.00
2023-05-18T07:18:30.390Z,3.20
2023-05-18T07:20:57.133Z,1.80
2023-05-18T07:23:24.332Z,2.10
2023-05-18T07:25:51.251Z,2.00
2023-05-18T07:28:18.386Z,2.30
2023-05-18T07:30:45.469Z,1.70
2023-05-18T07:33:12.641Z,2.30
2023-05-18T07:35:39.733Z,2.50
2023-05-18T07:38:06.865Z,2.70
2023-05-18T07:40:33.826Z,2.50
2023-05-18T07:43:00.671Z,2.00
2023-05-18T07:45:27.628Z,2.30
2023-05-18T07:47:54.600Z,1.20
2023-05-18T07:50:21.795Z,2.30
2023-05-18T07:52:48.741Z,2.40
2023-05-18T07:55:15.991Z,1.70
2023-05-18T07:57:42.948Z,2.40
2023-05-18T08:00:10.916Z,1.70
2023-05-18T08:02:42.590Z,1.80
2023-05-18T08:05:10.575Z,2.00
2023-05-18T08:07:37.781Z,2.00
2023-05-18T08:10:05.589Z,2.10
2023-05-18T08:12:32.943Z,2.30
2023-05-18T08:15:00.102Z,2.40
2023-05-18T08:17:27.090Z,2.30
2023-05-18T08:19:54.163Z,1.90
2023-05-18T08:22:21.118Z,1.80
2023-05-18T08:24:48.078Z,2.60
2023-05-18T08:27:15.394Z,2.40
2023-05-18T08:29:42.230Z,2.10
2023-05-18T08:32:09.267Z,1.80
2023-05-18T08:34:36.211Z,2.00
2023-05-18T08:37:03.486Z,2.50
2023-05-18T08:39:31.979Z,1.90
2023-05-18T08:42:03.414Z,2.00
2023-05-18T08:44:38.119Z,1.90
2023-05-18T08:47:08.770Z,1.90
2023-05-18T08:49:35.575Z,2.00
2023-05-18T08:52:15.652Z,1.60
2023-05-18T08:54:42.589Z,1.70
2023-05-18T08:57:12.370Z,1.90
2023-05-18T08:59:42.823Z,1.90
2023-05-18T09:02:10.138Z,1.80
2023-05-18T09:04:37.325Z,1.90
2023-05-18T09:07:05.985Z,1.70
2023-05-18T09:09:33.028Z,2.00
2023-05-18T09:11:59.988Z,1.80
2023-05-18T09:14:27.122Z,1.40
2023-05-18T09:16:54.319Z,1.90
2023-05-18T09:19:21.750Z,2.20
2023-05-18T09:24:16.018Z,1.80
2023-05-18T09:26:42.994Z,1.90
2023-05-18T09:29:17.636Z,1.90
2023-05-18T09:31:46.566Z,1.80
2023-05-18T09:34:14.605Z,1.70
2023-05-18T09:36:42.742Z,2.10
2023-05-18T09:39:11.535Z,1.80
2023-05-18T09:41:40.109Z,1.90
2023-05-18T09:44:09.809Z,1.50
2023-05-18T09:46:37.739Z,1.80
2023-05-18T09:49:05.918Z,1.80
2023-05-18T09:51:36.862Z,1.80
2023-05-18T09:54:06.992Z,2.30
2023-05-18T09:56:36.976Z,1.70
2023-05-18T09:59:14.448Z,3.00
2023-05-18T10:01:57.116Z,1.40
2023-05-18T10:04:26.613Z,2.30
2023-05-18T10:06:53.692Z,2.20
2023-05-18T10:09:20.668Z,2.20
2023-05-18T10:11:48.448Z,2.30
2023-05-18T10:14:15.397Z,2.10
2023-05-18T10:16:42.861Z,1.90
2023-05-18T10:21:36.840Z,1.80
2023-05-18T10:24:04.757Z,1.70
2023-05-18T10:26:31.755Z,1.70
2023-05-18T10:28:58.831Z,1.60
2023-05-18T10:31:26.035Z,2.80
2023-05-18T10:33:53.181Z,2.00
2023-05-18T10:36:20.242Z,1.70
2023-05-18T10:38:47.297Z,2.00
2023-05-18T10:41:14.296Z,1.60
2023-05-18T10:43:41.589Z,2.70
2023-05-18T10:46:08.760Z,2.50
2023-05-18T10:48:38.606Z,1.80
2023-05-18T10:51:07.183Z,2.30
2023-05-18T10:53:34.392Z,2.50
2023-05-18T10:56:01.913Z,2.30
2023-05-18T10:58:29.978Z,2.20
2023-05-18T11:01:01.375Z,2.10
2023-05-18T11:03:28.840Z,2.10
2023-05-18T11:08:49.869Z,2.20
2023-05-18T11:11:19.214Z,1.90
2023-05-18T11:13:50.291Z,2.00
2023-05-18T11:16:19.915Z,1.80
2023-05-18T11:18:51.979Z,2.10
2023-05-18T11:21:25.277Z,1.80
2023-05-18T11:24:14.910Z,1.60
2023-05-18T11:26:42.832Z,1.70
2023-05-18T11:29:36.865Z,1.70
2023-05-18T11:32:05.287Z,2.70
2023-05-18T11:34:46.393Z,2.10
2023-05-18T11:37:17.296Z,1.90
2023-05-18T11:40:00.198Z,2.20
2023-05-18T11:42:33.028Z,2.00
2023-05-18T11:45:06.762Z,2.10
2023-05-18T11:47:33.819Z,2.00
2023-05-18T11:50:01.003Z,2.30
2023-05-18T11:52:28.013Z,2.10
2023-05-18T11:55:00.062Z,1.90
2023-05-18T11:57:39.577Z,2.40
2023-05-18T12:00:13.687Z,2.00
2023-05-18T12:02:47.781Z,2.50
2023-05-18T12:05:15.397Z,2.00
2023-05-18T12:07:42.515Z,2.30
2023-05-18T12:10:12.829Z,2.30
2023-05-18T12:12:40.188Z,2.40
2023-05-18T12:15:08.728Z,2.90
2023-05-18T12:17:45.785Z,2.80
2023-05-18T12:20:20.823Z,3.10
2023-05-18T12:22:53.959Z,2.10
2023-05-18T12:25:23.449Z,2.70
2023-05-18T12:27:51.824Z,2.50
2023-05-18T12:30:20.446Z,2.70
2023-05-18T12:32:51.464Z,2.80
2023-05-18T12:35:25.405Z,2.70
2023-05-18T12:37:52.489Z,2.70
2023-05-18T12:40:20.130Z,3.10
2023-05-18T12:43:00.338Z,3.30
2023-05-18T12:45:28.602Z,3.10
2023-05-18T12:47:56.365Z,3.60
2023-05-18T12:50:25.792Z,3.80
2023-05-18T12:52:52.822Z,2.80
2023-05-18T12:55:23.484Z,3.60
2023-05-18T12:58:02.150Z,3.80
2023-05-18T13:00:35.540Z,2.70
2023-05-18T13:03:12.582Z,3.10
2023-05-18T13:05:42.663Z,2.90
2023-05-18T13:08:09.624Z,3.20
2023-05-18T13:10:36.648Z,3.10
2023-05-18T13:13:04.033Z,3.40
2023-05-18T13:18:04.003Z,3.10
2023-05-18T13:20:41.613Z,3.00
2023-05-18T13:23:10.489Z,3.10
2023-05-18T13:25:37.786Z,3.00
2023-05-18T13:28:04.973Z,3.40
2023-05-18T13:30:32.583Z,3.20
2023-05-18T13:33:00.343Z,3.10
2023-05-18T13:37:54.330Z,3.00
2023-05-18T13:40:22.366Z,3.30
2023-05-18T13:42:49.331Z,2.80
2023-05-18T13:45:16.500Z,3.60
2023-05-18T13:47:45.863Z,3.50
2023-05-18T13:50:13.094Z,3.50
2023-05-18T13:52:40.237Z,4.30
2023-05-18T13:55:08.201Z,3.70
2023-05-18T13:57:36.182Z,3.90
2023-05-18T14:00:06.922Z,3.70
2023-05-18T14:02:39.572Z,3.80
2023-05-18T14:05:08.821Z,3.70
2023-05-18T14:07:36.992Z,3.70
2023-05-18T14:10:05.170Z,3.70
2023-05-18T14:12:32.553Z,3.70
2023-05-18T14:14:59.935Z,4.00
2023-05-18T14:17:30.277Z,4.10
2023-05-18T14:19:57.758Z,3.70
2023-05-18T14:22:26.381Z,5.10
2023-05-18T14:24:54.033Z,4.00
2023-05-18T14:27:21.011Z,4.30
2023-05-18T14:29:48.498Z,4.20
2023-05-18T14:34:42.717Z,4.30
2023-05-18T14:37:09.756Z,3.50
2023-05-18T14:39:37.878Z,4.30
2023-05-18T14:42:06.330Z,3.50
2023-05-18T14:44:33.334Z,4.50
2023-05-18T14:47:00.490Z,4.20
2023-05-18T14:49:28.158Z,4.20
2023-05-18T14:51:55.200Z,4.30
2023-05-18T14:54:22.961Z,3.70
2023-05-18T14:56:50.028Z,4.70
2023-05-18T14:59:17.060Z,3.80
2023-05-18T15:01:44.005Z,4.70
2023-05-18T15:04:11.081Z,5.60
2023-05-18T15:06:38.287Z,4.80
2023-05-18T15:09:06.477Z,4.30
2023-05-18T15:11:33.609Z,6.60
2023-05-18T15:14:03.018Z,4.70
2023-05-18T15:16:31.184Z,5.30
2023-05-18T15:18:58.284Z,5.50
2023-05-18T15:21:25.858Z,4.70
2023-05-18T15:23:53.836Z,5.80
2023-05-18T15:26:21.418Z,6.20
2023-05-18T15:28:49.359Z,5.00
2023-05-18T15:31:16.420Z,4.90
2023-05-18T15:33:45.106Z,5.20
2023-05-18T15:36:12.037Z,5.80
2023-05-18T15:38:39.066Z,5.60
2023-05-18T15:41:06.167Z,4.70
2023-05-18T15:43:33.764Z,5.50
2023-05-18T15:46:00.760Z,4.70
2023-05-18T15:48:30.031Z,6.10
2023-05-18T15:50:57.031Z,4.80
2023-05-18T15:53:24.142Z,4.90
2023-05-18T15:55:57.813Z,5.00
2023-05-18T15:58:26.713Z,5.20
2023-05-18T16:00:54.029Z,4.90
2023-05-18T16:03:21.502Z,5.20
2023-05-18T16:05:48.649Z,5.60
2023-05-18T16:08:18.430Z,5.10
2023-05-18T16:10:45.428Z,4.70
2023-05-18T16:13:12.440Z,6.00
2023-05-18T16:15:39.510Z,5.50
2023-05-18T16:18:06.542Z,5.70
2023-05-18T16:20:33.782Z,6.00
2023-05-18T16:23:01.063Z,5.30
2023-05-18T16:25:29.152Z,5.20
2023-05-18T16:27:56.530Z,5.50
2023-05-18T16:30:23.537Z,5.40
2023-05-18T16:32:50.630Z,5.10
2023-05-18T16:35:17.641Z,6.00
2023-05-18T16:37:45.268Z,5.20
2023-05-18T16:40:13.144Z,5.70
2023-05-18T16:42:40.193Z,6.40
2023-05-18T16:45:07.423Z,6.60
2023-05-18T16:47:34.508Z,6.30
2023-05-18T16:50:01.614Z,6.90
2023-05-18T16:52:28.841Z,7.00
2023-05-18T16:54:55.866Z,7.10
2023-05-18T16:57:25.393Z,6.60
2023-05-18T16:59:54.335Z,6.90
2023-05-18T17:02:21.716Z,6.00
2023-05-18T17:04:50.136Z,6.00
2023-05-18T17:07:17.296Z,6.60
2023-05-18T17:09:44.429Z,6.60
2023-05-18T17:12:12.229Z,6.60
2023-05-18T17:14:39.343Z,7.30
2023-05-18T17:17:07.088Z,7.30
2023-05-18T17:19:39.072Z,6.80
2023-05-18T17:22:06.372Z,7.70
2023-05-18T17:24:33.324Z,7.00
2023-05-18T17:27:00.344Z,7.20
2023-05-18T17:29:27.593Z,6.70
2023-05-18T17:31:55.182Z,7.10
2023-05-18T17:34:22.770Z,7.90
2023-05-18T17:36:49.966Z,6.90
2023-05-18T17:39:17.018Z,7.00
2023-05-18T17:41:44.441Z,7.00
2023-05-18T17:44:14.318Z,7.20
2023-05-18T17:46:42.087Z,7.40
2023-05-18T17:49:09.360Z,7.20
2023-05-18T17:51:36.696Z,7.00
2023-05-18T17:54:04.300Z,6.80
2023-05-18T17:56:32.169Z,7.70
2023-05-18T17:58:59.799Z,7.30
2023-05-18T18:01:30.313Z,7.60
2023-05-18T18:03:57.472Z,7.40
2023-05-18T18:06:24.972Z,8.70
2023-05-18T18:08:53.931Z,7.50
2023-05-18T18:11:24.507Z,7.50
2023-05-18T18:13:51.714Z,7.30
2023-05-18T18:16:18.776Z,7.80
2023-05-18T18:18:45.977Z,8.20
2023-05-18T18:21:13.021Z,8.80
2023-05-18T18:23:40.585Z,9.00
2023-05-18T18:26:08.077Z,8.70
2023-05-18T18:28:35.260Z,9.00
2023-05-18T18:31:03.351Z,10.00
2023-05-18T18:35:57.721Z,10.40
2023-05-18T18:38:27.060Z,10.00
2023-05-18T18:40:59.939Z,9.60
2023-05-18T18:43:28.133Z,10.20
2023-05-18T18:45:57.282Z,10.60
2023-05-18T18:48:25.085Z,11.30
2023-05-18T18:50:52.805Z,10.70
2023-05-18T18:53:19.838Z,10.40
2023-05-18T18:55:47.215Z,10.40
2023-05-18T18:58:16.226Z,11.60
2023-05-18T19:00:44.142Z,10.70
2023-05-18T19:03:11.263Z,10.80
2023-05-18T19:05:38.375Z,11.10
2023-05-18T19:08:05.671Z,10.70
2023-05-18T19:10:34.407Z,11.20
2023-05-18T19:13:05.934Z,10.80
2023-05-18T19:15:34.898Z,11.70
2023-05-18T19:18:02.392Z,14.30
2023-05-18T19:20:29.584Z,13.70
2023-05-18T19:22:56.657Z,14.60
2023-05-18T19:25:26.491Z,18.10
2023-05-18T19:27:55.417Z,18.40
2023-05-18T19:30:22.580Z,18.40
2023-05-18T19:32:50.208Z,17.50
2023-05-18T19:35:19.800Z,23.00
2023-05-18T19:37:47.654Z,27.70
2023-05-18T19:40:14.772Z,27.40
2023-05-18T19:42:41.983Z,29.20
2023-05-18T19:45:09.228Z,30.50
2023-05-18T19:47:36.857Z,28.90
2023-05-18T19:50:04.750Z,31.20
2023-05-18T19:52:33.821Z,31.20
2023-05-18T19:55:02.465Z,32.70
2023-05-18T19:57:29.919Z,36.20
2023-05-18T19:59:58.050Z,34.10
2023-05-18T20:02:25.696Z,32.40
2023-05-18T20:04:53.871Z,37.90
2023-05-18T20:07:22.787Z,39.50
2023-05-18T20:09:55.196Z,39.90
2023-05-18T20:12:22.278Z,50.70
2023-05-18T20:14:49.433Z,46.50
2023-05-18T20:17:17.034Z,41.10
2023-05-18T20:19:49.985Z,28.80
2023-05-18T20:22:17.646Z,27.50
2023-05-18T20:24:44.781Z,30.80
2023-05-18T20:27:16.539Z,33.50
2023-05-18T20:29:43.598Z,33.80
2023-05-18T20:32:10.870Z,32.70
2023-05-18T20:34:37.873Z,30.00
2023-05-18T20:37:05.735Z,31.90
2023-05-18T20:39:33.007Z,31.50
2023-05-18T20:42:00.165Z,32.40
2023-05-18T20:44:28.958Z,32.30
2023-05-18T20:49:25.105Z,30.60
2023-05-18T20:51:52.090Z,32.50
2023-05-18T20:54:20.982Z,31.90
2023-05-18T20:56:48.036Z,31.10
2023-05-18T20:59:18.276Z,32.90
2023-05-18T21:01:45.381Z,31.30
2023-05-18T21:04:13.292Z,33.10
2023-05-18T21:06:41.085Z,33.90
2023-05-18T21:09:08.468Z,32.80
2023-05-18T21:11:35.977Z,33.50
2023-05-18T21:14:03.159Z,36.20
2023-05-18T21:16:30.180Z,42.70
2023-05-18T21:18:57.389Z,51.70
2023-05-18T21:21:24.564Z,52.30
2023-05-18T21:23:51.634Z,59.20
2023-05-18T21:26:18.783Z,60.40
2023-05-18T21:28:45.776Z,62.00
2023-05-18T21:31:12.957Z,64.10
2023-05-18T21:33:40.150Z,67.50
2023-05-18T21:36:10.158Z,62.40
2023-05-18T21:38:37.425Z,60.90
2023-05-18T21:41:04.490Z,54.80
2023-05-18T21:43:31.614Z,55.80
2023-05-18T21:45:58.817Z,54.50
2023-05-18T21:48:25.841Z,64.70
2023-05-18T21:50:52.863Z,55.90
2023-05-18T21:53:19.806Z,57.70
2023-05-18T21:55:46.933Z,56.20
2023-05-18T21:58:13.861Z,49.00
2023-05-18T22:00:40.811Z,50.00
2023-05-18T22:03:07.825Z,38.90
2023-05-18T22:05:35.086Z,40.00
2023-05-18T22:08:02.001Z,37.20
2023-05-18T22:10:31.384Z,34.40
2023-05-18T22:12:59.399Z,31.40
2023-05-18T22:15:26.365Z,32.20
2023-05-18T22:17:54.575Z,30.20
2023-05-18T22:20:21.705Z,23.90
2023-05-18T22:22:48.719Z,25.30
2023-05-18T22:25:18.267Z,23.10
2023-05-18T22:27:45.918Z,26.10
2023-05-18T22:30:14.250Z,22.50
2023-05-18T22:32:41.329Z,24.30
2023-05-18T22:35:09.649Z,24.60
2023-05-18T22:40:06.469Z,26.00
2023-05-18T22:42:33.805Z,28.70
2023-05-18T22:45:00.915Z,33.50
2023-05-18T22:47:28.409Z,38.90
2023-05-18T22:49:55.581Z,44.90
2023-05-18T22:52:22.926Z,46.00
2023-05-18T22:54:50.060Z,54.40
2023-05-18T22:57:17.043Z,57.70
2023-05-18T22:59:44.003Z,57.50
2023-05-18T23:02:11.168Z,57.90
2023-05-18T23:04:38.392Z,55.50
2023-05-18T23:07:05.555Z,54.70
2023-05-18T23:09:32.933Z,48.70
2023-05-18T23:12:01.449Z,47.80
2023-05-18T23:17:01.784Z,44.40
2023-05-18T23:19:28.962Z,44.10
2023-05-18T23:21:56.126Z,53.00
2023-05-18T23:24:23.102Z,52.30
2023-05-18T23:26:50.080Z,49.70
2023-05-18T23:29:17.057Z,45.90
2023-05-18T23:31:44.115Z,47.10
2023-05-18T23:34:11.378Z,44.80
2023-05-18T23:36:38.977Z,46.10
2023-05-18T23:39:07.471Z,45.60
2023-05-18T23:41:34.458Z,43.50
2023-05-18T23:44:02.078Z,43.30
2023-05-18T23:46:30.017Z,40.10
2023-05-18T23:48:59.975Z,40.10
2023-05-18T23:51:29.987Z,42.70
2023-05-18T23:53:57.061Z,39.70
2023-05-18T23:56:25.038Z,35.20
2023-05-18T23:58:52.289Z,35.00
